createdAt,value
2023-04-24T00:02:19.879Z,1.30
2023-04-24T00:04:46.475Z,1.60
2023-04-24T00:07:13.941Z,1.73
2023-04-24T00:09:40.566Z,1.70
2023-04-24T00:12:07.291Z,1.40
2023-04-24T00:14:33.737Z,1.50
2023-04-24T00:17:00.274Z,1.57
2023-04-24T00:19:26.839Z,1.33
2023-04-24T00:21:53.424Z,1.67
2023-04-24T00:24:19.928Z,1.73
2023-04-24T00:26:46.493Z,1.80
2023-04-24T00:29:12.985Z,1.73
2023-04-24T00:31:39.504Z,1.63
2023-04-24T00:34:06.520Z,1.67
2023-04-24T00:36:33.463Z,1.50
2023-04-24T00:38:59.957Z,1.67
2023-04-24T00:41:26.615Z,1.70
2023-04-24T00:43:53.639Z,2.87
2023-04-24T00:46:20.697Z,1.80
2023-04-24T00:48:47.428Z,1.80
2023-04-24T00:51:14.140Z,1.57
2023-04-24T00:53:40.602Z,1.93
2023-04-24T00:56:07.311Z,2.10
2023-04-24T00:58:33.903Z,1.80
2023-04-24T01:01:01.991Z,1.70
2023-04-24T01:03:32.663Z,1.73
2023-04-24T01:05:59.569Z,2.10
2023-04-24T01:08:29.130Z,2.00
2023-04-24T01:10:57.736Z,1.90
2023-04-24T01:13:24.402Z,1.97
2023-04-24T01:15:50.920Z,1.87
2023-04-24T01:18:17.452Z,2.30
2023-04-24T01:20:46.069Z,2.07
2023-04-24T01:23:12.665Z,2.30
2023-04-24T01:25:39.289Z,2.30
2023-04-24T01:28:05.834Z,2.80
2023-04-24T01:30:33.101Z,3.00
2023-04-24T01:32:59.905Z,3.50
2023-04-24T01:35:26.980Z,4.20
2023-04-24T01:37:53.652Z,4.47
2023-04-24T01:40:20.146Z,3.73
2023-04-24T01:42:46.839Z,4.57
2023-04-24T01:45:14.129Z,4.30
2023-04-24T01:47:40.807Z,4.40
2023-04-24T01:50:08.212Z,4.63
2023-04-24T01:52:36.183Z,4.30
2023-04-24T01:55:05.059Z,4.47
2023-04-24T01:57:35.466Z,4.13
2023-04-24T02:00:02.229Z,5.00
2023-04-24T02:02:29.767Z,3.90
2023-04-24T02:04:56.804Z,5.00
2023-04-24T02:07:23.710Z,4.80
2023-04-24T02:09:50.221Z,4.63
2023-04-24T02:12:18.393Z,4.70
2023-04-24T02:14:45.427Z,4.50
2023-04-24T02:17:14.158Z,5.27
2023-04-24T02:19:40.836Z,5.17
2023-04-24T02:22:07.450Z,4.77
2023-04-24T02:24:33.913Z,4.97
2023-04-24T02:27:01.151Z,4.77
2023-04-24T02:29:27.603Z,6.00
2023-04-24T02:31:54.038Z,5.50
2023-04-24T02:34:20.488Z,5.13
2023-04-24T02:36:46.875Z,6.67
2023-04-24T02:39:14.467Z,5.97
2023-04-24T02:41:41.037Z,6.03
2023-04-24T02:44:07.470Z,6.20
2023-04-24T02:46:33.942Z,6.90
2023-04-24T02:49:00.412Z,6.80
2023-04-24T02:51:27.749Z,6.17
2023-04-24T02:53:54.172Z,6.83
2023-04-24T02:56:20.599Z,6.97
2023-04-24T02:58:47.103Z,7.40
2023-04-24T03:01:13.588Z,7.60
2023-04-24T03:03:40.641Z,7.47
2023-04-24T03:06:08.994Z,8.10
2023-04-24T03:08:35.822Z,7.70
2023-04-24T03:11:02.214Z,8.10
2023-04-24T03:13:28.634Z,7.70
2023-04-24T03:15:55.175Z,8.00
2023-04-24T03:18:21.804Z,8.37
2023-04-24T03:20:48.542Z,8.00
2023-04-24T03:23:15.314Z,7.53
2023-04-24T03:25:43.681Z,8.00
2023-04-24T03:28:10.195Z,8.17
2023-04-24T03:30:36.647Z,7.70
2023-04-24T03:33:03.271Z,8.13
2023-04-24T03:35:29.836Z,7.70
2023-04-24T03:37:56.327Z,7.70
2023-04-24T03:40:22.823Z,7.70
2023-04-24T03:42:49.282Z,7.67
2023-04-24T03:45:15.985Z,7.80
2023-04-24T03:47:42.466Z,7.80
2023-04-24T03:50:11.174Z,7.00
2023-04-24T03:52:38.951Z,8.17
2023-04-24T03:55:05.879Z,8.00
2023-04-24T03:57:32.322Z,8.07
2023-04-24T03:59:58.771Z,8.23
2023-04-24T04:02:25.483Z,7.60
2023-04-24T04:04:52.230Z,7.87
2023-04-24T04:07:18.764Z,8.10
2023-04-24T04:09:45.386Z,7.93
2023-04-24T04:12:11.911Z,7.73
2023-04-24T04:14:39.209Z,8.73
2023-04-24T04:17:05.724Z,7.17
2023-04-24T04:19:32.254Z,8.07
2023-04-24T04:21:58.764Z,7.90
2023-04-24T04:24:25.426Z,8.07
2023-04-24T04:26:53.185Z,7.33
2023-04-24T04:29:19.847Z,7.80
2023-04-24T04:31:46.534Z,8.10
2023-04-24T04:34:13.685Z,7.83
2023-04-24T04:36:41.140Z,8.03
2023-04-24T04:39:07.991Z,8.53
2023-04-24T04:41:35.985Z,8.10
2023-04-24T04:44:05.453Z,7.60
2023-04-24T04:46:34.052Z,7.40
2023-04-24T04:49:02.323Z,6.83
2023-04-24T04:51:28.898Z,7.73
2023-04-24T04:53:55.345Z,8.07
2023-04-24T04:56:22.843Z,8.83
2023-04-24T04:58:49.256Z,8.10
2023-04-24T05:01:15.726Z,7.40
2023-04-24T05:03:42.462Z,7.50
2023-04-24T05:06:09.052Z,7.67
2023-04-24T05:08:35.661Z,7.40
2023-04-24T05:11:02.220Z,7.90
2023-04-24T05:13:39.179Z,7.50
2023-04-24T05:16:07.736Z,6.87
2023-04-24T05:18:34.276Z,6.77
2023-04-24T05:21:00.977Z,7.00
2023-04-24T05:23:27.462Z,6.27
2023-04-24T05:25:53.969Z,7.03
2023-04-24T05:28:20.940Z,7.77
2023-04-24T05:30:47.473Z,6.90
2023-04-24T05:33:15.075Z,6.20
2023-04-24T05:35:46.641Z,6.50
2023-04-24T05:38:13.801Z,6.13
2023-04-24T05:40:41.038Z,6.07
2023-04-24T05:43:07.464Z,5.80
2023-04-24T05:45:45.617Z,6.67
2023-04-24T05:48:12.038Z,6.47
2023-04-24T05:50:38.471Z,6.93
2023-04-24T05:53:05.464Z,6.50
2023-04-24T05:55:32.172Z,7.00
2023-04-24T05:57:58.673Z,6.33
2023-04-24T06:00:25.921Z,6.63
2023-04-24T06:02:53.874Z,7.20
2023-04-24T06:05:20.959Z,6.90
2023-04-24T06:07:47.581Z,6.63
2023-04-24T06:10:13.967Z,6.40
2023-04-24T06:12:40.649Z,6.60
2023-04-24T06:15:08.071Z,6.60
2023-04-24T06:17:34.562Z,7.07
2023-04-24T06:20:01.123Z,7.50
2023-04-24T06:22:27.778Z,7.83
2023-04-24T06:24:54.184Z,6.30
2023-04-24T06:27:20.785Z,6.27
2023-04-24T06:29:48.930Z,5.57
2023-04-24T06:32:15.404Z,5.60
2023-04-24T06:34:43.245Z,6.03
2023-04-24T06:37:09.633Z,7.10
2023-04-24T06:39:36.053Z,5.77
2023-04-24T06:42:02.606Z,7.33
2023-04-24T06:44:29.050Z,7.20
2023-04-24T06:46:55.550Z,6.60
2023-04-24T06:49:22.066Z,6.23
2023-04-24T06:51:48.503Z,5.03
2023-04-24T06:54:14.910Z,6.03
2023-04-24T06:56:42.415Z,5.20
2023-04-24T06:59:09.003Z,4.30
2023-04-24T07:01:35.559Z,4.73
2023-04-24T07:04:02.685Z,4.30
2023-04-24T07:06:31.489Z,3.90
2023-04-24T07:08:58.008Z,4.47
2023-04-24T07:11:25.044Z,4.37
2023-04-24T07:13:51.464Z,4.40
2023-04-24T07:16:18.057Z,3.80
2023-04-24T07:18:44.615Z,4.37
2023-04-24T07:21:11.056Z,3.70
2023-04-24T07:23:37.570Z,4.50
2023-04-24T07:26:04.431Z,3.50
2023-04-24T07:28:34.013Z,3.43
2023-04-24T07:31:00.927Z,3.50
2023-04-24T07:33:27.990Z,3.10
2023-04-24T07:35:54.679Z,3.13
2023-04-24T07:38:24.008Z,2.43
2023-04-24T07:40:50.540Z,2.70
2023-04-24T07:43:17.160Z,2.73
2023-04-24T07:45:43.874Z,2.27
2023-04-24T07:48:10.454Z,1.83
2023-04-24T07:50:37.704Z,1.87
2023-04-24T07:53:04.163Z,1.77
2023-04-24T07:55:30.617Z,1.90
2023-04-24T07:57:57.102Z,1.43
2023-04-24T08:00:23.608Z,1.73
2023-04-24T08:02:50.236Z,1.70
2023-04-24T08:05:17.355Z,3.20
2023-04-24T08:07:43.926Z,1.10
2023-04-24T08:10:14.349Z,1.03
2023-04-24T08:12:41.331Z,1.43
2023-04-24T08:15:08.551Z,1.00
2023-04-24T08:17:36.483Z,1.50
2023-04-24T08:20:04.832Z,1.23
2023-04-24T08:22:31.687Z,1.33
2023-04-24T08:25:00.809Z,1.60
2023-04-24T08:27:28.005Z,1.60
2023-04-24T08:29:55.594Z,1.43
2023-04-24T08:32:22.083Z,1.83
2023-04-24T08:34:49.785Z,1.50
2023-04-24T08:37:16.539Z,1.80
2023-04-24T08:39:43.330Z,2.00
2023-04-24T08:42:10.261Z,2.00
2023-04-24T08:44:37.503Z,1.87
2023-04-24T08:47:04.390Z,2.17
2023-04-24T08:49:31.480Z,2.10
2023-04-24T08:51:58.456Z,2.03
2023-04-24T08:54:26.286Z,2.47
2023-04-24T08:56:54.954Z,2.80
2023-04-24T08:59:22.960Z,2.83
2023-04-24T09:01:51.870Z,3.07
2023-04-24T09:04:21.192Z,3.37
2023-04-24T09:06:50.030Z,2.80
2023-04-24T09:09:17.757Z,3.77
2023-04-24T09:11:44.327Z,3.43
2023-04-24T09:14:11.840Z,3.20
2023-04-24T09:16:38.406Z,2.97
2023-04-24T09:19:04.962Z,3.20
2023-04-24T09:21:35.748Z,2.80
2023-04-24T09:24:06.396Z,2.67
2023-04-24T09:26:35.843Z,3.03
2023-04-24T09:29:02.453Z,3.07
2023-04-24T09:31:30.546Z,3.20
2023-04-24T09:34:08.259Z,4.40
2023-04-24T09:36:42.972Z,3.40
2023-04-24T09:39:12.111Z,3.57
2023-04-24T09:41:46.995Z,4.00
2023-04-24T09:44:17.455Z,3.47
2023-04-24T09:46:46.531Z,4.20
2023-04-24T09:49:17.626Z,3.93
2023-04-24T09:51:44.628Z,3.93
2023-04-24T09:54:19.429Z,4.37
2023-04-24T09:56:47.532Z,3.80
2023-04-24T09:59:16.076Z,4.67
2023-04-24T10:01:45.895Z,5.23
2023-04-24T10:04:24.498Z,5.30
2023-04-24T10:06:53.398Z,5.40
2023-04-24T10:09:21.923Z,5.20
2023-04-24T10:11:50.367Z,6.23
2023-04-24T10:14:19.252Z,6.07
2023-04-24T10:16:47.841Z,6.80
2023-04-24T10:19:16.156Z,6.70
2023-04-24T10:21:47.072Z,6.77
2023-04-24T10:24:15.437Z,6.37
2023-04-24T10:26:42.326Z,6.93
2023-04-24T10:29:13.442Z,7.03
2023-04-24T10:31:40.607Z,7.00
2023-04-24T10:34:07.926Z,7.50
2023-04-24T10:36:36.201Z,6.57
2023-04-24T10:39:07.711Z,7.87
2023-04-24T10:41:34.225Z,7.60
2023-04-24T10:44:07.916Z,6.90
2023-04-24T10:46:35.052Z,6.93
2023-04-24T10:49:05.018Z,5.33
2023-04-24T10:51:49.630Z,5.00
2023-04-24T10:54:28.434Z,5.10
2023-04-24T10:57:20.537Z,4.70
2023-04-24T10:59:52.561Z,4.60
2023-04-24T11:02:36.141Z,5.07
2023-04-24T11:05:05.054Z,5.23
2023-04-24T11:08:10.093Z,5.20
2023-04-24T11:10:40.423Z,6.50
2023-04-24T11:13:08.529Z,5.70
2023-04-24T11:15:35.746Z,6.13
2023-04-24T11:18:02.391Z,6.80
2023-04-24T11:20:28.971Z,7.07
2023-04-24T11:22:56.489Z,6.50
2023-04-24T11:25:23.920Z,6.20
2023-04-24T11:27:51.368Z,6.07
2023-04-24T11:30:20.317Z,4.90
2023-04-24T11:32:52.330Z,4.50
2023-04-24T11:35:25.847Z,4.60
2023-04-24T11:38:12.469Z,4.40
2023-04-24T11:40:42.881Z,4.53
2023-04-24T11:43:10.377Z,4.13
2023-04-24T11:45:36.818Z,4.57
2023-04-24T11:48:04.526Z,4.77
2023-04-24T11:50:31.393Z,4.37
2023-04-24T11:52:58.110Z,4.80
2023-04-24T11:55:28.592Z,4.93
2023-04-24T11:57:57.703Z,4.73
2023-04-24T12:00:30.395Z,5.20
2023-04-24T12:03:09.114Z,5.73
2023-04-24T12:05:36.398Z,5.00
2023-04-24T12:08:03.282Z,5.40
2023-04-24T12:10:32.831Z,5.20
2023-04-24T12:13:00.896Z,4.83
2023-04-24T12:15:28.019Z,5.00
2023-04-24T12:17:55.819Z,4.50
2023-04-24T12:20:28.257Z,4.93
2023-04-24T12:22:56.415Z,4.23
2023-04-24T12:25:25.356Z,3.83
2023-04-24T12:28:15.267Z,4.73
2023-04-24T12:30:49.753Z,4.20
2023-04-24T12:33:23.205Z,4.60
2023-04-24T12:35:54.315Z,4.00
2023-04-24T12:38:26.578Z,4.50
2023-04-24T12:41:13.989Z,3.40
2023-04-24T12:43:52.440Z,3.90
2023-04-24T12:46:20.563Z,5.23
2023-04-24T12:48:48.833Z,3.20
2023-04-24T12:51:15.391Z,2.63
2023-04-24T12:53:42.235Z,2.93
2023-04-24T12:56:08.845Z,3.23
2023-04-24T12:58:35.411Z,2.80
2023-04-24T13:01:02.156Z,2.63
2023-04-24T13:03:28.796Z,2.27
2023-04-24T13:05:55.315Z,2.60
2023-04-24T13:08:21.784Z,2.93
2023-04-24T13:10:48.342Z,2.03
2023-04-24T13:13:15.215Z,2.07
2023-04-24T13:15:41.623Z,2.10
2023-04-24T13:18:08.135Z,2.20
2023-04-24T13:20:36.449Z,2.10
2023-04-24T13:23:02.950Z,2.20
2023-04-24T13:25:30.654Z,2.00
2023-04-24T13:27:57.089Z,2.30
2023-04-24T13:30:23.541Z,2.03
2023-04-24T13:32:50.007Z,2.50
2023-04-24T13:35:16.551Z,2.13
2023-04-24T13:37:43.016Z,2.00
2023-04-24T13:40:10.126Z,2.50
2023-04-24T13:42:36.645Z,2.00
2023-04-24T13:45:17.429Z,2.30
2023-04-24T13:47:52.233Z,2.00
2023-04-24T13:50:19.278Z,1.93
2023-04-24T13:52:45.848Z,1.83
2023-04-24T13:55:12.401Z,1.90
2023-04-24T13:57:38.896Z,2.50
2023-04-24T14:00:07.236Z,2.40
2023-04-24T14:02:34.002Z,2.60
2023-04-24T14:05:00.773Z,2.30
2023-04-24T14:07:27.426Z,2.10
2023-04-24T14:09:53.860Z,2.00
2023-04-24T14:12:20.805Z,2.00
2023-04-24T14:14:48.960Z,2.23
2023-04-24T14:17:15.880Z,2.70
2023-04-24T14:19:42.344Z,2.10
2023-04-24T14:22:08.830Z,2.87
2023-04-24T14:24:35.305Z,1.80
2023-04-24T14:27:02.305Z,2.03
2023-04-24T14:29:28.841Z,1.80
2023-04-24T14:31:55.508Z,1.80
2023-04-24T14:34:22.013Z,1.90
2023-04-24T14:36:48.456Z,1.63
2023-04-24T14:39:15.025Z,1.97
2023-04-24T14:41:41.510Z,2.23
2023-04-24T14:44:07.965Z,2.70
2023-04-24T14:46:34.681Z,1.83
2023-04-24T14:49:01.368Z,1.90
2023-04-24T14:51:28.221Z,2.00
2023-04-24T14:53:54.664Z,2.20
2023-04-24T14:56:21.223Z,1.87
2023-04-24T14:58:47.725Z,2.10
2023-04-24T15:01:14.277Z,2.00
2023-04-24T15:03:41.063Z,1.87
2023-04-24T15:06:07.719Z,2.27
2023-04-24T15:08:34.197Z,2.00
2023-04-24T15:11:00.813Z,1.73
2023-04-24T15:13:27.378Z,2.23
2023-04-24T15:15:53.921Z,2.20
2023-04-24T15:18:20.355Z,1.80
2023-04-24T15:20:47.001Z,1.97
2023-04-24T15:23:13.707Z,2.00
2023-04-24T15:25:40.270Z,1.73
2023-04-24T15:28:07.150Z,2.83
2023-04-24T15:30:33.821Z,1.73
2023-04-24T15:33:02.022Z,2.60
2023-04-24T15:35:28.963Z,1.70
2023-04-24T15:37:55.865Z,1.90
2023-04-24T15:40:22.486Z,1.97
2023-04-24T15:42:48.978Z,2.30
2023-04-24T15:45:15.548Z,2.17
2023-04-24T15:47:42.087Z,2.13
2023-04-24T15:50:14.399Z,2.20
2023-04-24T15:52:41.303Z,2.37
2023-04-24T15:55:08.105Z,1.97
2023-04-24T15:57:34.576Z,2.27
2023-04-24T16:00:01.415Z,2.00
2023-04-24T16:02:28.060Z,1.97
2023-04-24T16:04:55.024Z,2.30
2023-04-24T16:07:21.756Z,2.17
2023-04-24T16:09:48.277Z,2.20
2023-04-24T16:12:14.924Z,2.00
2023-04-24T16:14:41.976Z,2.40
2023-04-24T16:17:08.618Z,2.10
2023-04-24T16:19:35.181Z,2.30
2023-04-24T16:22:03.120Z,2.20
2023-04-24T16:24:29.773Z,2.20
2023-04-24T16:26:56.633Z,1.97
2023-04-24T16:29:23.385Z,2.60
2023-04-24T16:31:49.990Z,2.53
2023-04-24T16:34:16.581Z,2.23
2023-04-24T16:36:43.253Z,2.00
2023-04-24T16:39:09.871Z,2.30
2023-04-24T16:41:36.393Z,2.03
2023-04-24T16:44:02.835Z,2.03
2023-04-24T16:46:29.305Z,1.90
2023-04-24T16:48:55.969Z,2.20
2023-04-24T16:51:22.449Z,2.20
2023-04-24T16:53:48.940Z,2.20
2023-04-24T16:56:15.759Z,3.13
2023-04-24T16:58:42.186Z,2.30
2023-04-24T17:01:08.840Z,2.20
2023-04-24T17:03:35.703Z,2.33
2023-04-24T17:06:03.014Z,2.47
2023-04-24T17:08:30.644Z,2.73
2023-04-24T17:10:57.114Z,2.40
2023-04-24T17:13:23.572Z,2.43
2023-04-24T17:15:50.054Z,3.03
2023-04-24T17:18:18.146Z,2.23
2023-04-24T17:20:44.705Z,2.70
2023-04-24T17:23:13.521Z,2.00
2023-04-24T17:25:40.149Z,2.30
2023-04-24T17:28:26.171Z,2.20
2023-04-24T17:30:54.549Z,2.20
2023-04-24T17:33:21.450Z,1.80
2023-04-24T17:35:49.029Z,1.90
2023-04-24T17:38:15.470Z,1.97
2023-04-24T17:40:41.960Z,2.20
2023-04-24T17:43:08.401Z,2.00
2023-04-24T17:45:34.947Z,1.77
2023-04-24T17:48:01.741Z,2.43
2023-04-24T17:50:28.285Z,1.87
2023-04-24T17:52:54.744Z,2.10
2023-04-24T17:55:21.557Z,2.00
2023-04-24T17:57:48.058Z,2.40
2023-04-24T18:00:15.087Z,2.53
2023-04-24T18:02:41.660Z,2.33
2023-04-24T18:05:08.280Z,2.17
2023-04-24T18:07:34.726Z,2.30
2023-04-24T18:10:01.136Z,2.30
2023-04-24T18:12:27.853Z,2.20
2023-04-24T18:15:02.975Z,2.20
2023-04-24T18:17:40.123Z,2.50
2023-04-24T18:20:07.127Z,2.37
2023-04-24T18:22:33.723Z,2.10
2023-04-24T18:25:00.240Z,2.30
2023-04-24T18:27:29.200Z,2.37
2023-04-24T18:29:55.678Z,2.43
2023-04-24T18:32:22.370Z,2.40
2023-04-24T18:34:49.065Z,2.67
2023-04-24T18:37:18.349Z,2.53
2023-04-24T18:39:44.803Z,2.40
2023-04-24T18:42:11.406Z,2.47
2023-04-24T18:44:40.975Z,2.40
2023-04-24T18:47:08.309Z,3.20
2023-04-24T18:49:34.974Z,2.43
2023-04-24T18:52:01.936Z,2.40
2023-04-24T18:54:29.740Z,2.60
2023-04-24T18:56:56.695Z,2.23
2023-04-24T18:59:23.258Z,2.67
2023-04-24T19:01:49.882Z,3.00
2023-04-24T19:04:16.491Z,2.90
2023-04-24T19:06:42.955Z,2.87
2023-04-24T19:09:09.422Z,2.70
2023-04-24T19:11:35.954Z,2.87
2023-04-24T19:14:04.289Z,2.90
2023-04-24T19:16:31.041Z,2.90
2023-04-24T19:18:57.531Z,3.27
2023-04-24T19:21:24.141Z,4.00
2023-04-24T19:23:52.430Z,2.47
2023-04-24T19:26:19.090Z,3.10
2023-04-24T19:28:48.114Z,3.10
2023-04-24T19:31:17.925Z,3.40
2023-04-24T19:33:48.268Z,2.97
2023-04-24T19:36:17.634Z,3.00
2023-04-24T19:38:45.192Z,4.37
2023-04-24T19:41:12.602Z,3.13
2023-04-24T19:43:39.956Z,2.93
2023-04-24T19:46:06.589Z,3.33
2023-04-24T19:48:33.281Z,3.57
2023-04-24T19:51:01.263Z,3.77
2023-04-24T19:53:28.276Z,3.70
2023-04-24T19:55:55.123Z,3.37
2023-04-24T19:58:21.690Z,3.27
2023-04-24T20:00:48.216Z,4.13
2023-04-24T20:03:25.538Z,3.70
2023-04-24T20:05:59.086Z,3.27
2023-04-24T20:08:25.699Z,3.20
2023-04-24T20:10:54.245Z,3.23
2023-04-24T20:13:20.660Z,3.47
2023-04-24T20:15:47.134Z,3.13
2023-04-24T20:18:13.650Z,3.60
2023-04-24T20:20:41.583Z,3.13
2023-04-24T20:23:10.313Z,3.70
2023-04-24T20:25:37.019Z,3.60
2023-04-24T20:28:03.559Z,4.63
2023-04-24T20:30:31.517Z,3.37
2023-04-24T20:32:58.664Z,3.80
2023-04-24T20:35:25.314Z,3.40
2023-04-24T20:37:53.818Z,3.70
2023-04-24T20:40:20.573Z,4.20
2023-04-24T20:42:47.053Z,3.90
2023-04-24T20:45:13.663Z,3.77
2023-04-24T20:47:40.158Z,4.03
2023-04-24T20:50:07.555Z,3.43
2023-04-24T20:52:34.161Z,4.20
2023-04-24T20:55:00.764Z,4.07
2023-04-24T20:57:27.423Z,3.63
2023-04-24T20:59:54.756Z,3.70
2023-04-24T21:02:21.286Z,3.00
2023-04-24T21:04:47.789Z,3.70
2023-04-24T21:07:15.226Z,4.03
2023-04-24T21:09:41.737Z,3.83
2023-04-24T21:12:08.181Z,4.47
2023-04-24T21:14:34.652Z,3.87
2023-04-24T21:17:01.852Z,3.90
2023-04-24T21:19:28.423Z,3.93
2023-04-24T21:21:54.884Z,3.60
2023-04-24T21:24:22.766Z,4.07
2023-04-24T21:26:49.617Z,3.60
2023-04-24T21:29:16.305Z,3.87
2023-04-24T21:31:42.797Z,4.07
2023-04-24T21:34:09.442Z,4.10
2023-04-24T21:36:35.998Z,4.37
2023-04-24T21:39:02.461Z,4.90
2023-04-24T21:41:28.935Z,4.27
2023-04-24T21:43:55.872Z,4.13
2023-04-24T21:46:22.768Z,3.90
2023-04-24T21:48:49.261Z,4.70
2023-04-24T21:51:16.572Z,4.50
2023-04-24T21:53:43.099Z,4.63
2023-04-24T21:56:09.646Z,4.13
2023-04-24T21:58:36.890Z,4.30
2023-04-24T22:01:03.542Z,4.20
2023-04-24T22:03:30.586Z,4.23
2023-04-24T22:05:57.094Z,4.47
2023-04-24T22:08:24.669Z,5.63
2023-04-24T22:10:53.097Z,4.73
2023-04-24T22:13:19.668Z,5.20
2023-04-24T22:15:46.177Z,4.60
2023-04-24T22:18:13.339Z,5.17
2023-04-24T22:20:39.937Z,4.70
2023-04-24T22:23:06.375Z,4.50
2023-04-24T22:25:32.952Z,4.90
2023-04-24T22:27:59.452Z,5.63
2023-04-24T22:30:26.012Z,6.10
2023-04-24T22:32:52.561Z,4.57
2023-04-24T22:35:20.309Z,5.20
2023-04-24T22:37:48.806Z,5.70
2023-04-24T22:40:15.792Z,5.80
2023-04-24T22:42:42.356Z,4.60
2023-04-24T22:45:11.569Z,5.57
2023-04-24T22:47:38.105Z,5.17
2023-04-24T22:50:05.992Z,5.10
2023-04-24T22:52:33.638Z,5.40
2023-04-24T22:55:00.915Z,5.13
2023-04-24T22:57:27.473Z,5.57
2023-04-24T22:59:54.250Z,5.57
2023-04-24T23:02:23.216Z,5.30
2023-04-24T23:04:49.824Z,6.43
2023-04-24T23:07:16.745Z,5.33
2023-04-24T23:09:43.171Z,5.73
2023-04-24T23:12:09.616Z,4.90
2023-04-24T23:14:36.449Z,5.87
2023-04-24T23:17:03.926Z,5.97
2023-04-24T23:19:30.524Z,5.13
2023-04-24T23:21:57.012Z,5.80
2023-04-24T23:24:23.606Z,5.43
2023-04-24T23:26:50.088Z,6.23
2023-04-24T23:29:16.553Z,5.20
2023-04-24T23:31:43.080Z,5.63
2023-04-24T23:34:09.512Z,6.17
2023-04-24T23:36:36.584Z,5.20
2023-04-24T23:39:05.209Z,4.83
2023-04-24T23:41:31.716Z,5.47
2023-04-24T23:43:58.222Z,5.80
2023-04-24T23:46:24.840Z,6.23
2023-04-24T23:48:51.353Z,5.13
2023-04-24T23:51:17.943Z,5.20
2023-04-24T23:53:44.602Z,4.80
2023-04-24T23:56:11.020Z,5.70
2023-04-24T23:58:37.475Z,5.30
